Time;durP1;ratioP1;P1;durP2;ratioP2;P2;SDS_P1;SDS_P2;PMS_P1;PMS_P2;Temp;Humidity;BMP_temperature;BMP_pressure;BME280_temperature;BME280_humidity;BME280_pressure;Samples;Min_cycle;Max_cycle;Signal;HPM_P1;HPM_P2
2021/03/17 00:00:42;;;;;;;52.33;25.83;;;;;;;2.48;55.07;98464.03;124817;1105;104265;-71
2021/03/17 00:03:21;;;;;;;52.90;26.97;;;;;;;2.45;55.65;98469.43;124369;1105;104229;-70
2021/03/17 00:05:50;;;;;;;48.93;27.27;;;;;;;2.41;55.81;98464.42;124293;1105;104233;-72
2021/03/17 00:08:20;;;;;;;49.93;26.70;;;;;;;2.36;55.55;98468.12;124312;1105;104280;-71
2021/03/17 00:10:50;;;;;;;56.07;27.43;;;;;;;2.30;55.61;98463.16;124266;1105;104187;-70
2021/03/17 00:13:25;;;;;;;53.53;26.97;;;;;;;2.25;55.92;98465.16;124168;1105;104165;-69
2021/03/17 00:15:58;;;;;;;54.50;26.93;;;;;;;2.21;55.87;98461.84;125522;1104;104150;-71
2021/03/17 00:18:28;;;;;;;56.50;28.23;;;;;;;2.15;55.34;98469.17;124210;1105;104178;-69
2021/03/17 00:20:56;;;;;;;53.27;26.97;;;;;;;2.07;55.05;98462.51;124424;1105;104278;-71
2021/03/17 00:23:25;;;;;;;50.27;26.07;;;;;;;2.00;55.72;98468.13;124316;1105;104304;-70
2021/03/17 00:25:52;;;;;;;52.03;25.20;;;;;;;1.93;55.57;98471.03;124267;1105;104175;-72
2021/03/17 00:28:19;;;;;;;52.30;27.03;;;;;;;1.91;56.05;98467.63;124302;1105;104238;-70
2021/03/17 00:30:46;;;;;;;50.27;26.20;;;;;;;1.86;56.08;98463.50;124191;1105;104288;-69
2021/03/17 00:33:14;;;;;;;52.00;27.67;;;;;;;1.80;56.06;98464.66;124135;1105;104162;-72
2021/03/17 00:35:44;;;;;;;49.63;25.73;;;;;;;1.74;55.80;98464.93;124521;1104;104830;-71
2021/03/17 00:38:11;;;;;;;54.43;28.20;;;;;;;1.71;56.26;98458.07;124290;1105;104220;-72
2021/03/17 00:40:38;;;;;;;53.50;27.48;;;;;;;1.70;56.09;98460.75;124249;1105;104220;-71
2021/03/17 00:43:05;;;;;;;54.30;26.80;;;;;;;1.67;56.43;98460.89;124209;1105;104184;-71
2021/03/17 00:45:34;;;;;;;52.80;26.52;;;;;;;1.62;56.18;98458.48;124298;1105;104705;-72
2021/03/17 00:48:01;;;;;;;53.10;27.27;;;;;;;1.61;56.33;98462.03;124306;1105;104248;-72
2021/03/17 00:50:28;;;;;;;50.30;25.10;;;;;;;1.60;56.73;98455.95;124279;1105;104281;-69
2021/03/17 00:52:56;;;;;;;51.80;27.97;;;;;;;1.60;56.48;98460.33;124233;1105;104573;-70
2021/03/17 00:55:24;;;;;;;54.15;27.37;;;;;;;1.55;56.58;98457.93;124197;1105;103567;-71
2021/03/17 00:57:53;;;;;;;51.37;25.00;;;;;;;1.52;56.41;98454.58;124128;1105;104284;-71
2021/03/17 01:00:20;;;;;;;53.83;27.73;;;;;;;1.50;56.31;98459.91;124200;1105;104296;-71
2021/03/17 01:02:49;;;;;;;50.17;25.50;;;;;;;1.48;56.78;98464.37;126158;1105;102459;-71
2021/03/17 01:05:18;;;;;;;51.03;26.73;;;;;;;1.49;56.70;98464.28;124276;1105;104185;-71
2021/03/17 01:07:47;;;;;;;49.87;25.83;;;;;;;1.51;57.46;98458.98;124280;1106;104182;-71
2021/03/17 01:10:19;;;;;;;49.88;26.55;;;;;;;1.54;56.76;98455.36;124198;1105;104165;-71
2021/03/17 01:12:46;;;;;;;53.27;28.30;;;;;;;1.52;56.63;98451.95;124027;1105;104293;-70
2021/03/17 01:15:19;;;;;;;53.70;28.60;;;;;;;1.50;56.68;98457.28;126213;1105;102159;-71
2021/03/17 01:17:47;;;;;;;52.97;27.57;;;;;;;1.49;57.04;98451.17;126279;1105;101908;-71
2021/03/17 01:20:17;;;;;;;49.03;26.43;;;;;;;1.49;56.84;98458.20;124133;1105;104251;-72
2021/03/17 01:22:46;;;;;;;49.17;25.63;;;;;;;1.48;56.79;98457.34;126256;1105;102042;-70
2021/03/17 01:25:33;;;;;;;52.60;26.67;;;;;;;1.46;57.04;98446.07;125784;1105;104338;-71
2021/03/17 01:28:03;;;;;;;48.97;26.60;;;;;;;1.43;56.86;98455.86;124210;1105;104188;-71
2021/03/17 01:30:36;;;;;;;53.77;27.10;;;;;;;1.41;57.13;98453.32;125052;1105;102805;-70
2021/03/17 01:33:06;;;;;;;56.27;26.57;;;;;;;1.37;57.36;98456.13;124180;1105;104182;-70
2021/03/17 01:35:35;;;;;;;54.23;27.77;;;;;;;1.38;56.94;98453.45;124063;1105;104328;-70
2021/03/17 01:38:05;;;;;;;49.70;26.77;;;;;;;1.37;57.90;98446.52;124296;1105;104185;-70
2021/03/17 01:40:36;;;;;;;51.00;25.77;;;;;;;1.39;57.51;98449.05;124290;1105;104181;-74
2021/03/17 01:43:04;;;;;;;52.30;26.83;;;;;;;1.41;57.63;98455.08;124310;1105;104641;-72
2021/03/17 01:45:33;;;;;;;53.00;26.43;;;;;;;1.39;57.60;98454.29;124211;1105;104614;-71
2021/03/17 01:48:02;;;;;;;49.53;26.47;;;;;;;1.39;58.01;98449.05;124017;1105;104188;-69
2021/03/17 01:50:32;;;;;;;53.80;29.40;;;;;;;1.37;57.48;98446.52;125136;1104;104325;-69
2021/03/17 01:53:09;;;;;;;48.13;26.33;;;;;;;1.37;57.64;98450.89;124128;1105;104255;-69
2021/03/17 01:55:39;;;;;;;51.03;27.63;;;;;;;1.33;57.73;98451.02;124293;1105;104235;-70
2021/03/17 01:58:09;;;;;;;54.17;28.13;;;;;;;1.30;57.59;98453.78;124334;1106;104262;-72
2021/03/17 02:00:38;;;;;;;52.83;28.67;;;;;;;1.29;57.93;98453.86;124240;1105;104163;-72
2021/03/17 02:03:08;;;;;;;55.77;28.43;;;;;;;1.27;58.08;98448.67;123938;1105;104268;-72
2021/03/17 02:05:40;;;;;;;50.13;25.53;;;;;;;1.26;58.56;98451.38;124259;1105;104316;-71
2021/03/17 02:08:35;;;;;;;51.63;27.80;;;;;;;1.28;58.44;98447.75;123920;1105;104261;-70
2021/03/17 02:11:05;;;;;;;48.53;25.77;;;;;;;1.31;58.56;98452.86;124243;1105;104290;-71
2021/03/17 02:13:57;;;;;;;51.57;26.77;;;;;;;1.34;58.38;98449.27;124312;1105;104261;-72
2021/03/17 02:16:30;;;;;;;52.07;28.07;;;;;;;1.34;58.66;98455.34;124309;1105;104168;-70
2021/03/17 02:19:29;;;;;;;46.68;23.10;;;;;;;1.37;58.49;98445.64;124257;1105;104159;-71
2021/03/17 02:22:29;;;;;;;48.57;25.07;;;;;;;1.37;58.78;98446.52;124344;1105;104258;-71
2021/03/17 02:24:59;;;;;;;51.63;27.30;;;;;;;1.38;58.83;98449.97;124178;1105;104217;-70
2021/03/17 02:27:29;;;;;;;52.50;28.23;;;;;;;1.38;58.67;98452.59;123958;1105;104261;-71
2021/03/17 02:30:33;;;;;;;49.70;27.70;;;;;;;1.39;58.84;98452.53;124297;1105;104325;-71
2021/03/17 02:33:28;;;;;;;53.02;27.67;;;;;;;1.37;59.03;98453.51;124157;1105;104268;-71
2021/03/17 02:36:13;;;;;;;57.13;29.17;;;;;;;1.37;58.94;98446.52;124315;1105;105347;-71
2021/03/17 02:39:07;;;;;;;53.43;27.90;;;;;;;1.39;58.80;98451.67;124259;1105;104616;-71
2021/03/17 02:41:40;;;;;;;;;;;;;;;1.39;58.83;98449.91;124208;1106;104274;-71
2021/03/17 02:44:15;;;;;;;57.40;28.07;;;;;;;1.38;59.32;98442.11;124262;1105;104332;-72
2021/03/17 02:46:45;;;;;;;50.53;27.20;;;;;;;1.37;58.98;98443.02;124187;1105;104239;-72
2021/03/17 02:49:21;;;;;;;53.73;28.20;;;;;;;1.37;59.44;98449.13;124209;1106;104803;-70
2021/03/17 02:51:55;;;;;;;53.93;28.43;;;;;;;1.38;59.49;98458.70;125583;1105;104156;-70
2021/03/17 02:54:25;;;;;;;51.10;26.40;;;;;;;1.38;59.23;98447.34;124193;1105;104230;-71
2021/03/17 02:57:01;;;;;;;53.57;26.47;;;;;;;1.36;59.25;98452.67;124321;1105;104185;-70
2021/03/17 02:59:31;;;;;;;51.93;27.33;;;;;;;1.34;59.46;98451.89;124216;1106;104217;-70
2021/03/17 03:02:00;;;;;;;50.30;27.10;;;;;;;1.35;59.26;98450.97;124319;1105;104214;-71
2021/03/17 03:04:31;;;;;;;55.13;26.90;;;;;;;1.32;59.29;98453.73;124309;1105;104153;-71
2021/03/17 03:07:01;;;;;;;53.50;26.13;;;;;;;1.28;59.55;98455.61;124323;1105;104181;-71
2021/03/17 03:09:28;;;;;;;53.30;28.07;;;;;;;1.26;59.20;98456.61;124299;1105;104316;-72
2021/03/17 03:11:59;;;;;;;49.50;27.35;;;;;;;1.22;59.52;98455.05;124282;1105;104233;-71
2021/03/17 03:14:28;;;;;;;51.00;27.53;;;;;;;1.18;59.71;98452.56;124306;1105;104159;-73
2021/03/17 03:16:59;;;;;;;52.97;26.80;;;;;;;1.18;59.68;98457.80;124299;1105;104185;-72
2021/03/17 03:19:44;;;;;;;51.13;26.43;;;;;;;1.17;59.91;98458.72;124306;1105;104376;-73
2021/03/17 03:22:14;;;;;;;54.33;27.37;;;;;;;1.15;59.57;98455.31;124298;1105;104258;-72
2021/03/17 03:24:42;;;;;;;52.17;26.93;;;;;;;1.13;59.53;98457.15;124294;1105;104179;-70
2021/03/17 03:27:12;;;;;;;49.37;24.80;;;;;;;1.11;60.11;98453.74;124304;1105;104178;-71
2021/03/17 03:29:41;;;;;;;50.27;26.17;;;;;;;1.14;60.02;98456.23;124315;1105;104220;-71
2021/03/17 03:32:10;;;;;;;52.13;27.60;;;;;;;1.13;59.69;98449.29;124337;1105;104256;-70
2021/03/17 03:34:39;;;;;;;52.33;26.83;;;;;;;1.13;60.28;98456.31;124310;1105;104165;-72
2021/03/17 03:37:08;;;;;;;52.30;27.33;;;;;;;1.13;60.11;98456.31;124290;1105;104181;-70
2021/03/17 03:39:35;;;;;;;55.53;27.53;;;;;;;1.12;60.11;98455.45;124328;1105;104313;-70
2021/03/17 03:42:02;;;;;;;51.77;26.90;;;;;;;1.13;60.29;98457.15;124303;1105;104185;-70
2021/03/17 03:44:29;;;;;;;50.13;27.40;;;;;;;1.12;60.38;98452.83;124235;1105;104278;-71
2021/03/17 03:46:56;;;;;;;57.00;28.90;;;;;;;1.11;60.10;98455.53;124299;1105;104379;-71
2021/03/17 03:49:26;;;;;;;52.70;27.13;;;;;;;1.11;60.45;98448.50;124295;1105;104153;-70
2021/03/17 03:52:06;;;;;;;50.03;25.93;;;;;;;1.11;60.47;98455.53;124289;1105;104258;-72
2021/03/17 03:54:53;;;;;;;56.37;28.57;;;;;;;1.11;60.59;98460.77;124280;1105;104217;-70
2021/03/17 03:57:30;;;;;;;49.87;24.97;;;;;;;1.13;60.58;98457.15;123973;1105;104185;-71
2021/03/17 04:00:05;;;;;;;55.43;28.10;;;;;;;1.15;60.80;98452.69;123997;1105;104220;-71
2021/03/17 04:02:41;;;;;;;52.73;27.37;;;;;;;1.16;60.58;98464.04;123958;1105;104239;-69
2021/03/17 04:05:12;;;;;;;50.43;26.47;;;;;;;1.14;60.46;98466.71;124216;1105;104184;-69
2021/03/17 04:07:45;;;;;;;51.27;27.20;;;;;;;1.11;60.74;98466.00;125641;1105;102418;-72
2021/03/17 04:10:15;;;;;;;53.40;28.65;;;;;;;1.06;60.59;98471.42;124295;1105;104258;-70
2021/03/17 04:12:45;;;;;;;51.67;27.03;;;;;;;1.02;60.80;98468.10;123898;1105;104663;-71
2021/03/17 04:15:16;;;;;;;47.73;26.50;;;;;;;1.02;61.40;98468.10;124365;1105;104261;-71
2021/03/17 04:17:54;;;;;;;51.17;26.97;;;;;;;1.03;61.03;98464.56;124315;1105;104160;-71
2021/03/17 04:20:30;;;;;;;44.53;23.80;;;;;;;1.04;61.26;98465.40;124269;1105;104181;-71
2021/03/17 04:23:00;;;;;;;49.53;26.87;;;;;;;1.06;61.16;98473.20;124309;1105;104160;-72
2021/03/17 04:25:33;;;;;;;51.80;28.20;;;;;;;1.09;61.55;98468.67;124314;1105;104328;-72
2021/03/17 04:28:04;;;;;;;51.87;26.37;;;;;;;1.13;61.34;98474.65;124271;1105;104274;-72
2021/03/17 04:30:33;;;;;;;53.30;28.03;;;;;;;1.13;61.53;98470.25;124303;1105;104165;-73
2021/03/17 04:33:02;;;;;;;52.47;27.33;;;;;;;1.13;61.55;98469.41;124017;1105;104264;-71
2021/03/17 04:35:30;;;;;;;53.03;28.50;;;;;;;1.13;61.57;98467.63;124317;1105;104620;-72
2021/03/17 04:38:03;;;;;;;53.23;27.57;;;;;;;1.14;61.09;98468.49;124313;1105;104184;-73
2021/03/17 04:40:32;;;;;;;58.73;27.67;;;;;;;1.12;61.17;98472.95;124296;1105;104217;-72
2021/03/17 04:43:00;;;;;;;53.13;27.87;;;;;;;1.10;61.27;98472.16;124287;1105;104265;-72
2021/03/17 04:45:30;;;;;;;53.80;26.70;;;;;;;1.06;61.49;98466.19;124262;1105;104271;-72
2021/03/17 04:47:59;;;;;;;50.57;26.87;;;;;;;1.03;61.39;98466.32;124290;1105;104238;-71
2021/03/17 04:50:29;;;;;;;50.07;27.47;;;;;;;0.99;61.52;98464.78;124002;1105;104261;-71
2021/03/17 04:52:58;;;;;;;51.50;26.87;;;;;;;0.98;61.71;98474.39;124284;1105;104159;-71
2021/03/17 04:55:27;;;;;;;55.63;28.20;;;;;;;0.96;61.66;98470.98;124290;1105;104235;-72
2021/03/17 04:57:57;;;;;;;58.65;28.35;;;;;;;0.96;61.58;98472.77;124236;1105;104185;-73
2021/03/17 05:00:27;;;;;;;54.00;28.53;;;;;;;0.94;61.28;98478.05;124266;1105;104181;-71
2021/03/17 05:03:05;;;;;;;52.20;26.67;;;;;;;0.93;61.55;98470.27;124247;1105;104281;-70
2021/03/17 05:05:35;;;;;;;53.13;27.37;;;;;;;0.94;61.57;98474.59;124269;1105;104316;-71
2021/03/17 05:08:09;;;;;;;56.43;28.90;;;;;;;0.92;61.47;98474.64;124295;1105;104329;-71
2021/03/17 05:10:40;;;;;;;55.47;28.27;;;;;;;0.92;61.97;98473.81;124314;1105;104351;-71
2021/03/17 05:13:12;;;;;;;52.03;27.40;;;;;;;0.92;61.87;98473.81;124237;1105;104255;-71
2021/03/17 05:15:43;;;;;;;57.53;30.83;;;;;;;0.93;62.04;98471.11;124880;1105;104398;-71
2021/03/17 05:18:13;;;;;;;58.13;31.77;;;;;;;0.94;62.12;98480.67;124242;1105;104618;-71
2021/03/17 05:20:43;;;;;;;60.73;32.77;;;;;;;0.96;62.01;98478.00;124280;1105;104187;-71
2021/03/17 05:23:16;;;;;;;66.57;32.97;;;;;;;0.96;62.08;98486.70;124172;1105;104255;-71
2021/03/17 05:25:48;;;;;;;64.30;34.43;;;;;;;0.95;62.25;98484.98;124182;1105;104261;-71
2021/03/17 05:28:18;;;;;;;59.50;31.07;;;;;;;0.99;62.28;98483.11;124255;1105;104268;-70
2021/03/17 05:30:51;;;;;;;73.00;34.53;;;;;;;1.01;62.19;98476.87;124170;1105;104154;-70
2021/03/17 05:33:23;;;;;;;69.63;34.77;;;;;;;1.06;62.16;98481.06;124238;1105;104159;-72
2021/03/17 05:35:50;;;;;;;68.00;37.13;;;;;;;1.10;62.84;98480.02;123971;1105;104271;-72
2021/03/17 05:38:18;;;;;;;79.50;37.13;;;;;;;1.12;61.89;98483.42;124278;1105;104246;-70
2021/03/17 05:40:45;;;;;;;70.67;35.57;;;;;;;1.12;61.75;98494.73;124198;1105;104267;-72
2021/03/17 05:43:14;;;;;;;70.53;35.43;;;;;;;1.13;62.19;98493.82;124231;1105;104255;-72
2021/03/17 05:45:41;;;;;;;65.80;33.60;;;;;;;1.16;62.57;98493.69;124234;1105;104139;-72
2021/03/17 05:48:11;;;;;;;65.67;33.57;;;;;;;1.17;62.58;98490.16;124273;1105;104302;-73
2021/03/17 05:50:39;;;;;;;57.53;31.23;;;;;;;1.21;62.15;98495.27;124195;1105;104249;-72
2021/03/17 05:53:09;;;;;;;61.43;32.40;;;;;;;1.26;62.71;98493.30;124026;1105;104281;-73
2021/03/17 05:55:38;;;;;;;60.53;32.43;;;;;;;1.30;62.32;98502.73;123980;1105;104245;-72
2021/03/17 05:58:05;;;;;;;63.77;33.33;;;;;;;1.36;62.81;98496.36;124884;1105;102910;-73
2021/03/17 06:00:34;;;;;;;61.23;32.70;;;;;;;1.42;62.69;98498.70;123998;1105;104191;-73
2021/03/17 06:03:05;;;;;;;63.93;32.10;;;;;;;1.51;63.20;98497.44;124287;1105;104184;-70
2021/03/17 06:05:34;;;;;;;59.60;31.67;;;;;;;1.57;63.04;98499.79;124186;1105;104290;-72
2021/03/17 06:08:07;;;;;;;60.20;31.90;;;;;;;1.65;63.44;98505.55;124169;1105;104159;-73
2021/03/17 06:10:35;;;;;;;54.43;28.90;;;;;;;1.75;62.87;98505.97;124039;1105;104187;-73
2021/03/17 06:13:09;;;;;;;57.20;30.17;;;;;;;1.84;63.34;98510.80;124149;1105;104261;-74
2021/03/17 06:15:40;;;;;;;54.27;29.60;;;;;;;1.96;63.15;98506.75;124336;1105;104229;-72
2021/03/17 06:18:30;;;;;;;51.83;28.57;;;;;;;2.06;63.25;98505.41;124090;1105;104395;-72
2021/03/17 06:21:00;;;;;;;52.43;28.60;;;;;;;2.16;63.26;98518.09;124557;1105;104235;-72
2021/03/17 06:23:27;;;;;;;49.87;26.83;;;;;;;2.26;63.30;98516.72;124303;1105;104159;-73
2021/03/17 06:25:58;;;;;;;55.13;28.23;;;;;;;2.37;63.81;98516.23;124325;1105;104149;-72
2021/03/17 06:28:29;;;;;;;51.63;29.53;;;;;;;2.44;63.08;98520.27;124325;1104;104270;-73
2021/03/17 06:30:59;;;;;;;55.50;29.60;;;;;;;2.55;63.83;98519.73;124171;1105;104157;-73
2021/03/17 06:33:27;;;;;;;53.33;28.93;;;;;;;2.65;63.45;98526.22;124201;1105;104277;-73
2021/03/17 06:36:31;;;;;;;52.17;27.87;;;;;;;2.76;63.59;98527.47;124242;1105;104647;-73
2021/03/17 06:39:08;;;;;;;51.83;26.83;;;;;;;2.85;63.42;98528.81;123848;1109;104349;-74
2021/03/17 06:41:55;;;;;;;55.40;28.47;;;;;;;2.93;63.86;98524.00;124243;1105;104220;-73
2021/03/17 06:44:32;;;;;;;53.70;29.30;;;;;;;3.02;63.50;98530.59;124306;1105;104309;-72
2021/03/17 06:47:21;;;;;;;50.87;27.60;;;;;;;3.06;63.64;98524.23;124230;1105;104165;-72
2021/03/17 06:49:54;;;;;;;52.47;28.50;;;;;;;3.08;63.83;98520.61;124211;1105;104291;-72
2021/03/17 06:52:40;;;;;;;52.07;29.03;;;;;;;3.12;64.06;98529.17;124218;1105;104165;-72
2021/03/17 06:55:17;;;;;;;52.00;27.40;;;;;;;3.12;63.39;98531.80;124335;1105;104168;-72
2021/03/17 06:57:51;;;;;;;50.23;27.60;;;;;;;3.19;64.25;98533.20;124304;1105;104181;-73
2021/03/17 07:00:27;;;;;;;42.60;22.87;;;;;;;3.25;64.05;98525.00;124277;1105;104217;-72
2021/03/17 07:03:09;;;;;;;45.60;25.77;;;;;;;3.24;64.14;98528.56;124212;1105;104268;-73
2021/03/17 07:05:44;;;;;;;47.80;26.00;;;;;;;3.28;63.94;98530.11;124182;1106;104213;-72
2021/03/17 07:08:26;;;;;;;45.70;25.65;;;;;;;3.38;64.27;98535.73;124347;1105;104351;-73
2021/03/17 07:11:00;;;;;;;49.07;25.80;;;;;;;3.47;64.15;98541.45;124682;1105;104319;-73
2021/03/17 07:13:29;;;;;;;54.30;27.27;;;;;;;3.51;64.21;98543.82;123916;1105;104242;-73
2021/03/17 07:15:59;;;;;;;48.07;25.23;;;;;;;3.54;63.76;98546.30;124177;1105;104254;-72
2021/03/17 07:18:30;;;;;;;44.60;24.80;;;;;;;3.58;63.73;98547.00;124296;1105;104281;-74
2021/03/17 07:21:05;;;;;;;44.20;24.43;;;;;;;3.62;64.31;98545.91;124187;1105;104201;-73
2021/03/17 07:23:44;;;;;;;49.83;25.80;;;;;;;3.61;63.70;98546.84;124168;1105;104255;-72
2021/03/17 07:26:20;;;;;;;45.33;24.33;;;;;;;3.64;64.21;98551.08;124205;1105;104259;-74
2021/03/17 07:28:47;;;;;;;46.87;25.47;;;;;;;3.64;64.02;98554.58;123949;1108;104222;-71
2021/03/17 07:31:28;;;;;;;51.03;26.50;;;;;;;3.70;64.00;98556.86;124306;1105;104182;-74
2021/03/17 07:34:21;;;;;;;41.63;22.23;;;;;;;3.73;64.14;98550.60;124317;1105;104247;-72
2021/03/17 07:36:56;;;;;;;46.33;25.73;;;;;;;3.77;64.29;98553.91;124224;1105;104238;-73
2021/03/17 07:39:30;;;;;;;43.53;25.23;;;;;;;3.85;63.83;98551.72;123872;1105;104158;-73
2021/03/17 07:42:01;;;;;;;44.00;25.03;;;;;;;3.90;63.66;98551.47;124156;1105;104220;-73
2021/03/17 07:44:30;;;;;;;47.33;24.87;;;;;;;3.93;63.96;98546.04;124580;1105;104175;-73
2021/03/17 07:47:03;;;;;;;44.70;25.43;;;;;;;3.99;64.41;98553.61;124336;1105;104185;-72
2021/03/17 07:49:47;;;;;;;41.57;24.23;;;;;;;4.05;64.28;98545.39;124196;1105;104168;-72
2021/03/17 07:52:22;;;;;;;46.27;25.13;;;;;;;4.10;64.11;98550.39;123854;1105;104283;-75
2021/03/17 07:54:52;;;;;;;46.05;24.27;;;;;;;4.17;64.08;98551.76;124264;1105;104300;-72
2021/03/17 07:57:26;;;;;;;48.03;27.17;;;;;;;4.23;63.99;98556.69;124169;1105;104248;-72
2021/03/17 07:59:56;;;;;;;44.33;23.90;;;;;;;4.25;64.24;98551.36;124956;1105;104126;-72
2021/03/17 08:02:24;;;;;;;43.83;25.10;;;;;;;4.27;64.23;98557.39;124186;1105;104290;-72
2021/03/17 08:04:52;;;;;;;42.97;23.00;;;;;;;4.30;64.23;98544.89;124118;1105;104181;-73
2021/03/17 08:07:21;;;;;;;44.40;25.13;;;;;;;4.31;64.39;98546.59;124242;1105;104179;-72
2021/03/17 08:09:50;;;;;;;44.20;23.33;;;;;;;4.42;64.13;98551.25;124238;1105;104179;-74
2021/03/17 08:12:19;;;;;;;46.37;24.17;;;;;;;4.55;64.59;98547.94;124308;1105;104161;-72
2021/03/17 08:14:48;;;;;;;39.90;23.13;;;;;;;4.70;64.44;98548.85;124288;1105;104264;-73
2021/03/17 08:17:31;;;;;;;37.40;20.45;;;;;;;4.82;64.37;98548.16;124257;1105;104223;-73
2021/03/17 08:20:18;;;;;;;42.33;22.17;;;;;;;4.97;64.28;98546.42;123945;1105;104265;-72
2021/03/17 08:22:49;;;;;;;41.27;21.67;;;;;;;5.07;64.26;98541.45;124236;1105;104271;-72
2021/03/17 08:25:43;;;;;;;35.53;18.40;;;;;;;5.24;64.46;98547.53;123941;1105;104165;-71
2021/03/17 08:28:23;;;;;;;35.40;19.13;;;;;;;5.40;64.32;98543.02;124358;1105;104299;-71
2021/03/17 08:30:52;;;;;;;35.37;18.13;;;;;;;5.52;64.40;98541.43;124088;1105;104162;-72
2021/03/17 08:33:37;;;;;;;32.03;17.00;;;;;;;5.58;64.61;98538.42;124778;1104;104640;-72
2021/03/17 08:36:14;;;;;;;32.38;15.72;;;;;;;5.71;64.60;98538.52;124361;1105;104262;-70
2021/03/17 08:38:52;;;;;;;31.70;15.83;;;;;;;5.81;64.59;98538.83;124114;1105;104255;-71
2021/03/17 08:41:41;;;;;;;32.47;15.70;;;;;;;5.88;64.21;98540.15;124259;1105;104296;-71
2021/03/17 08:44:26;;;;;;;32.17;16.63;;;;;;;6.00;64.47;98528.00;124193;1105;104208;-72
2021/03/17 08:46:57;;;;;;;32.07;16.33;;;;;;;6.09;63.90;98535.36;124160;1105;104165;-71
2021/03/17 08:49:36;;;;;;;30.73;15.67;;;;;;;6.15;64.03;98539.39;124220;1105;104265;-72
2021/03/17 08:52:08;;;;;;;33.97;16.07;;;;;;;6.20;64.04;98539.95;125111;1105;102295;-72
2021/03/17 08:54:35;;;;;;;31.47;17.37;;;;;;;6.35;63.89;98540.77;124921;1105;104252;-73
2021/03/17 08:57:06;;;;;;;28.30;14.63;;;;;;;6.50;63.81;98541.58;124267;1105;104159;-74
2021/03/17 08:59:39;;;;;;;32.20;15.57;;;;;;;6.60;64.13;98548.91;124216;1105;104185;-73
2021/03/17 09:02:26;;;;;;;29.63;16.00;;;;;;;6.74;64.56;98543.55;124254;1105;104211;-73
2021/03/17 09:04:58;;;;;;;29.73;15.30;;;;;;;6.89;64.23;98539.09;124241;1105;104182;-72
2021/03/17 09:07:29;;;;;;;29.60;15.05;;;;;;;6.96;64.10;98547.45;124213;1105;104220;-72
2021/03/17 09:10:15;;;;;;;28.43;14.67;;;;;;;7.03;64.46;98542.59;124179;1105;104236;-72
2021/03/17 09:12:42;;;;;;;29.13;14.40;;;;;;;7.05;63.69;98549.48;124162;1106;104554;-72
2021/03/17 09:15:11;;;;;;;28.60;15.17;;;;;;;7.06;64.22;98548.54;124390;1105;104254;-72
2021/03/17 09:17:57;;;;;;;29.10;14.53;;;;;;;7.06;63.56;98543.25;124161;1105;104153;-71
2021/03/17 09:20:29;;;;;;;29.83;14.60;;;;;;;7.04;64.15;98553.08;124846;1104;104239;-72
2021/03/17 09:23:01;;;;;;;28.10;14.00;;;;;;;7.02;63.49;98547.05;124280;1105;104232;-72
2021/03/17 09:25:36;;;;;;;27.80;15.10;;;;;;;6.97;63.56;98541.21;124152;1105;104339;-72
2021/03/17 09:28:27;;;;;;;28.57;16.20;;;;;;;7.00;63.72;98549.77;124118;1105;104227;-73
2021/03/17 09:31:00;;;;;;;33.37;17.47;;;;;;;7.00;64.01;98546.30;124160;1105;104197;-72
2021/03/17 09:33:30;;;;;;;33.33;17.23;;;;;;;6.94;64.01;98549.34;124208;1106;104309;-72
2021/03/17 09:36:00;;;;;;;28.23;14.80;;;;;;;6.89;63.99;98544.38;124240;1105;104210;-72
2021/03/17 09:38:32;;;;;;;30.60;15.27;;;;;;;6.87;63.56;98551.55;124261;1105;104233;-72
2021/03/17 09:41:03;;;;;;;40.17;21.50;;;;;;;6.91;63.32;98547.77;124244;1105;104261;-71
2021/03/17 09:43:37;;;;;;;29.70;15.23;;;;;;;6.94;63.90;98550.17;124285;1105;104184;-72
2021/03/17 09:46:32;;;;;;;29.17;14.73;;;;;;;6.95;63.29;98540.47;124272;1105;104274;-72
2021/03/17 09:49:08;;;;;;;31.63;15.67;;;;;;;6.92;63.80;98559.17;124237;1105;104178;-73
2021/03/17 09:51:47;;;;;;;29.67;14.37;;;;;;;6.93;63.72;98550.30;124259;1105;104184;-73
2021/03/17 09:54:24;;;;;;;26.57;13.93;;;;;;;6.87;63.35;98551.55;124215;1105;104262;-71
2021/03/17 09:57:06;;;;;;;28.47;14.87;;;;;;;6.83;63.65;98555.34;124017;1105;104297;-73
2021/03/17 09:59:41;;;;;;;27.33;15.50;;;;;;;6.72;63.30;98561.34;124228;1104;104146;-73
2021/03/17 10:02:24;;;;;;;27.37;14.10;;;;;;;6.63;62.93;98561.93;124202;1105;104217;-72
2021/03/17 10:05:01;;;;;;;29.70;14.23;;;;;;;6.61;63.09;98556.73;124282;1105;104258;-73
2021/03/17 10:07:33;;;;;;;28.30;14.37;;;;;;;6.55;62.93;98563.27;124230;1105;104257;-72
2021/03/17 10:10:06;;;;;;;31.20;15.23;;;;;;;6.49;63.27;98563.66;124287;1105;104271;-71
2021/03/17 10:12:33;;;;;;;28.80;14.57;;;;;;;6.53;62.91;98566.94;124028;1105;104421;-71
2021/03/17 10:15:09;;;;;;;26.53;13.03;;;;;;;6.57;63.19;98563.16;124255;1105;104261;-72
2021/03/17 10:17:37;;;;;;;;;;;;;;;6.60;63.31;98567.41;124305;1105;104243;-72
2021/03/17 10:20:19;;;;;;;25.37;13.87;;;;;;;6.60;62.96;98570.89;125270;1105;104287;-71
2021/03/17 10:22:50;;;;;;;29.30;15.97;;;;;;;6.65;63.13;98571.44;124962;1105;104159;-72
2021/03/17 10:25:22;;;;;;;32.47;16.30;;;;;;;6.73;63.25;98583.32;124240;1105;103486;-73
2021/03/17 10:27:57;;;;;;;26.70;14.47;;;;;;;6.78;62.75;98574.13;124227;1105;105752;-73
2021/03/17 10:30:26;;;;;;;28.87;15.30;;;;;;;6.76;63.03;98580.48;124235;1105;104159;-74
2021/03/17 10:33:00;;;;;;;32.80;15.30;;;;;;;6.76;63.17;98578.67;124072;1105;104411;-73
2021/03/17 10:35:32;;;;;;;28.77;15.70;;;;;;;6.81;63.00;98576.58;124267;1105;104207;-72
2021/03/17 10:38:01;;;;;;;30.87;15.63;;;;;;;6.88;62.55;98586.76;124268;1105;104217;-73
2021/03/17 10:40:31;;;;;;;29.03;14.40;;;;;;;6.89;62.40;98583.17;124296;1105;104220;-73
2021/03/17 10:43:11;;;;;;;29.00;15.33;;;;;;;6.85;62.89;98580.72;124015;1105;104316;-74
2021/03/17 10:45:50;;;;;;;29.70;15.70;;;;;;;6.84;62.54;98586.13;124094;1105;104304;-74
2021/03/17 10:48:25;;;;;;;29.50;14.40;;;;;;;6.90;62.69;98583.08;124776;1105;104139;-73
2021/03/17 10:50:54;;;;;;;26.52;14.58;;;;;;;6.99;62.63;98582.45;124201;1105;104267;-73
2021/03/17 10:53:28;;;;;;;27.73;15.30;;;;;;;6.98;63.13;98567.53;124265;1105;104153;-73
2021/03/17 10:55:58;;;;;;;27.43;15.03;;;;;;;6.97;62.41;98580.88;124307;1105;104162;-73
2021/03/17 10:58:30;;;;;;;28.93;15.40;;;;;;;6.95;62.59;98582.77;124179;1105;104185;-72
2021/03/17 11:01:02;;;;;;;31.67;17.43;;;;;;;6.87;62.69;98588.57;123795;1106;104239;-74
2021/03/17 11:03:34;;;;;;;31.30;18.60;;;;;;;6.85;62.77;98590.47;124138;1105;104246;-73
2021/03/17 11:06:22;;;;;;;31.00;18.40;;;;;;;6.77;62.37;98592.75;124146;1105;104252;-73
2021/03/17 11:09:01;;;;;;;33.90;19.00;;;;;;;6.66;62.21;98601.38;124083;1105;104147;-74
2021/03/17 11:11:30;;;;;;;34.37;19.37;;;;;;;6.53;62.46;98599.52;124122;1105;104265;-73
2021/03/17 11:13:57;;;;;;;31.17;17.73;;;;;;;6.46;62.20;98616.69;124164;1105;104181;-72
2021/03/17 11:16:26;;;;;;;32.75;17.65;;;;;;;6.43;61.75;98608.13;124164;1105;104176;-72
2021/03/17 11:19:01;;;;;;;31.20;17.00;;;;;;;6.40;61.75;98617.07;124047;1105;104242;-72
2021/03/17 11:21:36;;;;;;;32.90;18.30;;;;;;;6.34;61.76;98615.67;124167;1105;104227;-73
2021/03/17 11:24:06;;;;;;;30.27;16.67;;;;;;;6.31;61.83;98615.87;124121;1105;104220;-71
2021/03/17 11:26:40;;;;;;;34.30;18.97;;;;;;;6.24;62.01;98622.47;124071;1105;104348;-71
2021/03/17 11:29:15;;;;;;;31.53;17.67;;;;;;;6.20;61.68;98621.82;124033;1105;104817;-71
2021/03/17 11:31:44;;;;;;;32.80;17.63;;;;;;;6.13;61.82;98631.06;124121;1105;104184;-72
2021/03/17 11:34:13;;;;;;;31.47;17.17;;;;;;;6.05;61.77;98628.03;124171;1104;104182;-70
2021/03/17 11:36:41;;;;;;;36.27;18.37;;;;;;;5.97;61.94;98628.48;124227;1105;104157;-72